Time;durP1;ratioP1;P1;durP2;ratioP2;P2;SDS_P1;SDS_P2;PMS_P1;PMS_P2;Temp;Humidity;BMP_temperature;BMP_pressure;BME280_temperature;BME280_humidity;BME280_pressure;Samples;Min_cycle;Max_cycle;Signal;HPM_P1;HPM_P2
2021/09/08 00:03:11;;;;;;;21.40;8.23;;;;;;;33.92;47.87;97366.59;1116914;260;97973;-39
2021/09/08 00:08:13;;;;;;;17.57;8.17;;;;;;;33.89;47.93;97363.16;1116573;260;98968;-40
2021/09/08 00:13:14;;;;;;;15.27;7.07;;;;;;;33.85;47.95;97358.74;1115179;259;99432;-40
2021/09/08 00:18:16;;;;;;;17.03;7.10;;;;;;;33.83;47.98;97356.34;1109134;251;72112;-39
2021/09/08 00:23:17;;;;;;;30.03;11.70;;;;;;;33.51;48.10;97362.68;1100495;262;70576;-40
2021/09/08 00:28:19;;;;;;;16.93;7.50;;;;;;;33.79;47.86;97365.38;1101588;262;277585;-39
2021/09/08 00:33:20;;;;;;;16.27;6.70;;;;;;;33.90;47.82;97361.95;1099647;262;98022;-37
2021/09/08 00:38:22;;;;;;;16.33;6.93;;;;;;;33.90;47.73;97352.11;1099717;262;98935;-38
2021/09/08 00:43:23;;;;;;;18.07;6.50;;;;;;;34.01;47.56;97352.66;1102728;262;195551;-39
2021/09/08 00:48:25;;;;;;;18.80;7.50;;;;;;;33.75;47.67;97346.33;1099139;262;98014;-39
2021/09/08 00:53:26;;;;;;;451.80;119.47;;;;;;;28.74;53.75;97347.27;1101387;263;98937;-38
2021/09/08 00:58:28;;;;;;;789.17;346.70;;;;;;;27.38;56.65;97343.22;1101182;263;190866;-41
2021/09/08 01:03:29;;;;;;;1510.37;712.70;;;;;;;27.23;56.92;97334.34;1100490;263;98118;-39
2021/09/08 01:08:31;;;;;;;1879.70;799.17;;;;;;;27.07;57.69;97334.95;1098680;261;98936;-40
2021/09/08 01:13:32;;;;;;;1332.17;609.43;;;;;;;26.26;59.74;97346.98;1099330;263;195683;-40
2021/09/08 01:18:36;;;;;;;176.03;49.50;;;;;;;28.29;55.54;97339.72;1099268;263;98940;-40
2021/09/08 01:23:37;;;;;;;103.23;31.60;;;;;;;28.11;55.85;97342.14;1097696;262;69353;-39
2021/09/08 01:28:39;;;;;;;68.13;21.53;;;;;;;27.93;56.13;97339.00;1100785;263;98326;-40
2021/09/08 01:33:40;;;;;;;61.23;18.83;;;;;;;27.75;56.41;97333.66;1099059;263;188585;-41
2021/09/08 01:38:42;;;;;;;54.47;15.80;;;;;;;27.57;56.64;97329.91;1103947;262;99436;-41
2021/09/08 01:43:43;;;;;;;54.73;15.67;;;;;;;27.42;56.90;97329.36;1105522;262;98132;-40
2021/09/08 01:48:45;;;;;;;40.00;12.37;;;;;;;27.20;57.22;97326.70;1104897;262;97788;-41
2021/09/08 01:53:47;;;;;;;40.20;11.87;;;;;;;27.01;57.47;97320.50;1104854;262;72865;-41
2021/09/08 01:58:48;;;;;;;29.83;9.53;;;;;;;26.86;57.66;97313.56;1104530;262;72105;-40
2021/09/08 02:03:50;;;;;;;25.37;9.57;;;;;;;26.71;57.87;97311.05;1099823;263;277603;-39
2021/09/08 02:08:51;;;;;;;18.27;8.43;;;;;;;26.55;58.06;97308.84;1097655;263;96998;-40
2021/09/08 02:13:53;;;;;;;18.67;8.00;;;;;;;26.39;58.25;97308.28;1099641;263;98930;-39
2021/09/08 02:18:54;;;;;;;16.83;7.67;;;;;;;26.29;58.42;97307.98;1101385;263;193394;-40
2021/09/08 02:23:56;;;;;;;14.20;7.17;;;;;;;26.16;58.58;97304.48;1100175;263;98931;-42
2021/09/08 02:28:57;;;;;;;12.63;6.10;;;;;;;25.98;58.76;97285.94;1098185;262;98937;-41
2021/09/08 02:33:59;;;;;;;10.50;6.03;;;;;;;25.87;59.00;97302.32;1098917;262;190053;-41
2021/09/08 02:39:01;;;;;;;10.43;6.17;;;;;;;25.75;59.09;97294.64;1101519;262;98945;-41
2021/09/08 02:44:02;;;;;;;9.08;5.60;;;;;;;25.67;59.15;97301.34;1100191;262;97750;-41
2021/09/08 02:49:04;;;;;;;8.53;6.00;;;;;;;25.55;59.36;97296.42;1098813;263;196495;-41
2021/09/08 02:54:05;;;;;;;10.63;6.13;;;;;;;25.46;59.47;97296.58;1099223;263;97984;-39
2021/09/08 02:59:07;;;;;;;9.00;5.77;;;;;;;25.34;59.65;97294.65;1101817;263;98945;-40
2021/09/08 03:04:08;;;;;;;8.37;5.80;;;;;;;25.25;59.68;97295.37;1101119;263;187996;-41
2021/09/08 03:09:10;;;;;;;7.47;5.80;;;;;;;25.21;59.80;97296.44;1097931;263;97961;-41
2021/09/08 03:14:11;;;;;;;8.97;5.90;;;;;;;25.12;59.86;97290.21;1104327;262;99431;-41
2021/09/08 03:19:13;;;;;;;7.93;5.33;;;;;;;25.06;60.00;97295.18;1104554;262;98414;-40
2021/09/08 03:24:14;;;;;;;8.63;5.90;;;;;;;24.99;60.07;97290.22;1101945;262;71204;-41
2021/09/08 03:29:16;;;;;;;9.00;6.03;;;;;;;24.91;60.11;97288.95;1103095;261;72385;-41
2021/09/08 03:34:17;;;;;;;9.67;6.00;;;;;;;24.87;60.19;97283.86;1098347;263;276803;-40
2021/09/08 03:39:19;;;;;;;7.87;5.83;;;;;;;24.75;60.30;97278.56;1098196;263;98950;-41
2021/09/08 03:44:21;;;;;;;8.97;5.80;;;;;;;24.73;60.36;97280.07;1103823;261;97578;-40
2021/09/08 03:49:22;;;;;;;9.27;5.73;;;;;;;24.69;60.40;97283.32;1102456;262;193877;-40
2021/09/08 03:54:24;;;;;;;9.13;6.10;;;;;;;24.61;60.46;97282.28;1104082;262;98751;-40
2021/09/08 03:59:25;;;;;;;6.90;5.67;;;;;;;24.58;60.51;97273.86;1100280;263;98984;-40
2021/09/08 04:04:27;;;;;;;9.07;5.97;;;;;;;24.52;60.55;97268.53;1097783;263;190881;-39
2021/09/08 04:09:28;;;;;;;9.73;5.90;;;;;;;24.49;60.56;97273.97;1102318;263;98018;-41
2021/09/08 04:14:31;;;;;;;7.87;5.50;;;;;;;24.45;60.64;97266.91;1103592;262;99481;-41
2021/09/08 04:19:32;;;;;;;8.67;5.97;;;;;;;24.40;60.67;97269.12;1102464;263;194880;-42
2021/09/08 04:24:34;;;;;;;7.20;5.20;;;;;;;24.37;60.71;97262.90;1097429;263;98892;-40
2021/09/08 04:29:35;;;;;;;8.53;6.07;;;;;;;24.32;60.78;97258.38;1103109;262;98113;-40
2021/09/08 04:34:37;;;;;;;7.77;5.27;;;;;;;24.29;60.79;97254.08;1099566;263;187922;-40
2021/09/08 04:39:39;;;;;;;9.03;6.03;;;;;;;24.26;60.83;97255.59;1097493;263;98090;-39
2021/09/08 04:44:40;;;;;;;8.93;5.80;;;;;;;24.23;60.89;97257.06;1102951;262;98953;-40
2021/09/08 04:49:42;;;;;;;8.20;5.87;;;;;;;24.20;60.91;97250.03;1104376;262;98838;-41
2021/09/08 04:54:43;;;;;;;9.13;6.23;;;;;;;24.17;60.93;97251.54;1102891;262;71780;-40
2021/09/08 04:59:45;;;;;;;8.53;6.03;;;;;;;24.14;60.98;97253.62;1102671;262;71629;-40
2021/09/08 05:04:46;;;;;;;7.90;5.57;;;;;;;24.12;60.94;97255.09;1102729;263;275169;-40
2021/09/08 05:09:48;;;;;;;7.87;5.63;;;;;;;24.07;61.03;97251.99;1099104;263;98956;-40
2021/09/08 05:14:49;;;;;;;7.57;5.57;;;;;;;24.05;61.02;97252.92;1102530;262;98957;-41
2021/09/08 05:19:51;;;;;;;8.40;5.87;;;;;;;24.03;61.04;97256.61;1098470;263;192339;-40
2021/09/08 05:24:52;;;;;;;9.50;6.60;;;;;;;23.98;61.08;97251.28;1100919;263;98948;-40
2021/09/08 05:29:54;;;;;;;7.70;5.20;;;;;;;23.98;61.11;97240.78;1098975;262;97414;-40
2021/09/08 05:34:56;;;;;;;8.63;5.90;;;;;;;23.93;61.13;97247.37;1098210;262;190220;-40
2021/09/08 05:39:58;;;;;;;10.97;6.23;;;;;;;23.92;61.11;97251.26;1096836;263;97075;-41
2021/09/08 05:44:59;;;;;;;10.98;6.30;;;;;;;23.89;61.17;97252.77;1099268;263;99002;-41
2021/09/08 05:50:01;;;;;;;8.63;5.90;;;;;;;23.89;61.15;97253.34;1097875;263;194653;-40
2021/09/08 05:55:03;;;;;;;9.20;6.10;;;;;;;23.85;61.22;97252.42;1101511;262;99016;-40
2021/09/08 06:00:04;;;;;;;9.87;6.30;;;;;;;23.84;61.19;97254.38;1103126;262;97980;-41
2021/09/08 06:05:06;;;;;;;8.60;5.73;;;;;;;23.82;61.23;97251.16;1102179;262;187397;-40
2021/09/08 06:10:07;;;;;;;7.50;5.40;;;;;;;23.82;61.22;97254.47;1099702;263;99461;-40
2021/09/08 06:15:09;;;;;;;9.60;6.00;;;;;;;23.80;61.23;97247.09;1098271;262;99812;-39
2021/09/08 06:20:10;;;;;;;8.90;5.90;;;;;;;23.76;61.32;97246.16;1096269;262;99440;-41
2021/09/08 06:25:12;;;;;;;9.03;5.77;;;;;;;23.75;61.32;97249.52;1101626;262;71817;-40
2021/09/08 06:30:13;;;;;;;10.70;6.50;;;;;;;23.74;61.38;97235.45;1099865;262;72167;-39
2021/09/08 06:35:15;;;;;;;9.37;6.20;;;;;;;23.71;61.37;97232.53;1097051;263;277427;-40
2021/09/08 06:40:16;;;;;;;8.83;6.30;;;;;;;23.70;61.41;97236.45;1100655;263;97069;-40
2021/09/08 06:45:18;;;;;;;9.53;6.10;;;;;;;23.70;61.39;97237.27;1098524;264;98019;-40
2021/09/08 06:50:20;;;;;;;10.57;6.37;;;;;;;23.71;61.37;97231.15;1098978;263;194378;-41
2021/09/08 06:55:21;;;;;;;9.53;6.20;;;;;;;23.68;61.42;97227.69;1101065;263;98946;-40
2021/09/08 07:00:23;;;;;;;8.37;5.80;;;;;;;23.67;61.43;97224.12;1099310;263;98120;-42
2021/09/08 07:05:24;;;;;;;10.13;6.63;;;;;;;23.52;61.47;97202.62;1104099;262;190811;-40
2021/09/08 07:10:26;;;;;;;8.33;6.43;;;;;;;23.63;61.51;97219.05;1101877;262;99079;-42
2021/09/08 07:15:27;;;;;;;9.97;6.10;;;;;;;23.64;61.47;97215.94;1103352;262;98948;-40
2021/09/08 07:20:29;;;;;;;9.97;6.40;;;;;;;23.60;61.54;97212.22;1099862;263;195635;-40
2021/09/08 07:25:30;;;;;;;10.07;6.23;;;;;;;23.58;61.55;97211.75;1098828;263;98023;-40
2021/09/08 07:30:32;;;;;;;8.73;6.07;;;;;;;23.58;61.59;97211.75;1100685;263;98939;-40
2021/09/08 07:35:34;;;;;;;16.73;9.10;;;;;;;23.59;61.59;97209.80;1100449;263;186178;-40
2021/09/08 07:40:35;;;;;;;17.47;8.40;;;;;;;23.57;61.61;97211.50;1097827;263;98941;-40
2021/09/08 07:45:37;;;;;;;20.63;8.33;;;;;;;23.58;61.61;97212.30;1099009;263;98092;-40
2021/09/08 07:50:38;;;;;;;14.77;7.60;;;;;;;23.58;61.58;97211.75;1096836;263;98967;-40
2021/09/08 07:55:40;;;;;;;18.83;7.50;;;;;;;23.60;61.56;97208.06;1102717;262;70903;-41
2021/09/08 08:00:41;;;;;;;24.10;8.40;;;;;;;23.59;61.55;97207.83;1100560;262;72979;-39
2021/09/08 08:05:43;;;;;;;22.33;8.73;;;;;;;23.56;61.67;97205.73;1100018;262;277758;-40
2021/09/08 08:10:44;;;;;;;55.10;19.27;;;;;;;23.57;61.65;97207.34;1103137;263;98935;-39
2021/09/08 08:15:46;;;;;;;24.87;8.47;;;;;;;23.57;61.60;97208.73;1103368;262;97946;-41
2021/09/08 08:20:47;;;;;;;26.20;8.87;;;;;;;23.59;61.61;97205.64;1101787;262;194345;-41
2021/09/08 08:25:49;;;;;;;25.73;8.83;;;;;;;23.59;61.67;97207.03;1097150;263;99692;-40
2021/09/08 08:30:52;;;;;;;22.50;8.43;;;;;;;23.58;61.69;97204.84;1100708;262;98942;-42
2021/09/08 08:35:53;;;;;;;26.97;8.77;;;;;;;23.58;61.65;97199.30;1100656;262;190891;-40
2021/09/08 08:40:55;;;;;;;19.67;7.90;;;;;;;23.57;61.70;97204.58;1096283;263;99001;-41
2021/09/08 08:45:56;;;;;;;16.43;7.50;;;;;;;23.55;61.74;97193.05;1097558;262;98002;-42
2021/09/08 08:50:58;;;;;;;22.73;7.90;;;;;;;23.55;61.77;97198.58;1102216;262;195012;-40
2021/09/08 08:55:59;;;;;;;15.83;6.80;;;;;;;23.54;61.78;97196.97;1103308;262;99162;-39
2021/09/08 09:01:01;;;;;;;14.37;6.27;;;;;;;23.54;61.76;97193.40;1102611;262;100367;-41
2021/09/08 09:06:02;;;;;;;13.20;6.03;;;;;;;23.52;61.79;97195.70;1104302;262;188604;-41
2021/09/08 09:11:04;;;;;;;13.37;5.53;;;;;;;23.51;61.86;97190.75;1103994;262;97962;-40
2021/09/08 09:16:05;;;;;;;11.90;5.80;;;;;;;23.51;61.85;97183.83;1103173;262;98936;-42
2021/09/08 09:21:07;;;;;;;11.30;5.55;;;;;;;23.51;61.81;97181.64;1104120;262;99099;-40
2021/09/08 09:26:08;;;;;;;9.87;5.43;;;;;;;23.51;61.86;97171.95;1104809;262;70700;-42
2021/09/08 09:31:10;;;;;;;9.17;5.37;;;;;;;23.51;61.83;97171.95;1105404;262;70819;-39
2021/09/08 09:36:11;;;;;;;7.03;4.77;;;;;;;23.48;61.81;97170.66;1103562;262;276480;-41
2021/09/08 09:41:13;;;;;;;8.87;5.07;;;;;;;23.48;61.83;97163.75;1101749;262;98944;-41
2021/09/08 09:46:15;;;;;;;7.27;5.03;;;;;;;23.47;61.80;97158.56;1098355;263;98941;-41
2021/09/08 09:51:16;;;;;;;6.70;4.87;;;;;;;23.43;61.92;97157.64;1099120;263;194200;-42
2021/09/08 09:56:18;;;;;;;7.63;4.90;;;;;;;23.43;61.93;97142.42;1100636;263;98843;-40
2021/09/08 10:01:20;;;;;;;7.67;4.90;;;;;;;23.43;61.88;97136.31;1100879;262;96992;-39
2021/09/08 10:06:21;;;;;;;7.80;4.63;;;;;;;23.42;61.92;97143.00;1102904;262;189950;-40
2021/09/08 10:11:23;;;;;;;7.23;4.80;;;;;;;23.42;61.91;97138.05;1107921;262;98932;-41
2021/09/08 10:16:24;;;;;;;7.40;4.63;;;;;;;23.40;61.91;97138.39;1106702;262;99442;-39
2021/09/08 10:21:26;;;;;;;7.20;4.70;;;;;;;23.40;61.91;97130.09;1106198;262;193859;-40
2021/09/08 10:26:30;;;;;;;7.37;4.70;;;;;;;23.40;61.87;97124.56;1100032;263;98859;-40
2021/09/08 10:31:32;;;;;;;5.23;4.07;;;;;;;23.36;61.96;97116.70;1103904;262;98902;-41
2021/09/08 10:36:34;;;;;;;5.20;4.10;;;;;;;23.38;61.93;97118.55;1100826;263;97135;-41
2021/09/08 10:41:35;;;;;;;5.15;4.37;;;;;;;23.34;61.97;97110.13;1099985;263;97959;-39
2021/09/08 10:46:37;;;;;;;6.23;4.70;;;;;;;23.34;61.93;97098.27;1100485;263;187254;-41
2021/09/08 10:51:38;;;;;;;6.23;4.43;;;;;;;23.34;62.03;97103.80;1101531;262;98968;-39
2021/09/08 10:56:40;;;;;;;6.33;4.77;;;;;;;23.37;61.91;97099.77;1097405;263;97986;-41
2021/09/08 11:01:42;;;;;;;6.23;4.80;;;;;;;23.32;62.05;97093.66;1101076;262;99457;-40
2021/09/08 11:06:47;;;;;;;6.03;4.30;;;;;;;23.33;61.95;97084.20;1104311;262;72802;-41
2021/09/08 11:11:48;;;;;;;6.43;4.80;;;;;;;23.32;62.01;97079.83;1099000;262;98011;-41
2021/09/08 11:16:50;;;;;;;6.93;4.50;;;;;;;23.30;62.00;97077.98;1104309;262;70805;-39
2021/09/08 11:21:52;;;;;;;5.00;4.10;;;;;;;23.31;62.00;97069.92;1105301;262;70590;-41
2021/09/08 11:26:54;;;;;;;6.57;4.47;;;;;;;23.28;62.03;97079.69;1099739;262;276595;-40
2021/09/08 11:31:55;;;;;;;5.73;4.10;;;;;;;23.28;62.04;97066.44;1100389;263;98984;-41
2021/09/08 11:36:57;;;;;;;5.57;4.13;;;;;;;23.28;62.04;97080.27;1102321;263;100254;-41
2021/09/08 11:41:58;;;;;;;4.90;4.07;;;;;;;23.22;62.52;97068.64;1101292;263;192348;-40
2021/09/08 11:47:00;;;;;;;5.10;4.13;;;;;;;23.27;62.03;97073.13;1100478;263;98957;-39
2021/09/08 11:52:01;;;;;;;5.58;4.22;;;;;;;23.27;62.06;97065.63;1100130;263;97556;-39
2021/09/08 11:57:03;;;;;;;5.20;4.10;;;;;;;23.25;62.07;97065.75;1100200;262;190721;-39
2021/09/08 12:02:04;;;;;;;7.37;4.97;;;;;;;23.23;62.10;97061.14;1102823;262;97997;-40
2021/09/08 12:07:07;;;;;;;6.00;4.20;;;;;;;23.23;62.07;97061.95;1103499;262;98923;-41
2021/09/08 12:12:08;;;;;;;5.73;4.03;;;;;;;23.25;62.03;97061.61;1103526;262;194996;-39
2021/09/08 12:17:14;;;;;;;4.90;3.93;;;;;;;23.23;62.05;97060.57;1103222;262;98958;-41
2021/09/08 12:22:13;;;;;;;5.77;4.03;;;;;;;23.23;62.05;97056.42;1101810;262;69554;-41
2021/09/08 12:27:15;;;;;;;4.67;3.90;;;;;;;23.23;62.06;97054.23;1096273;263;97436;-39
2021/09/08 12:32:17;;;;;;;5.93;4.00;;;;;;;23.23;62.05;97054.23;1100411;263;187855;-39
2021/09/08 12:37:18;;;;;;;4.83;4.03;;;;;;;23.21;62.10;97044.91;1098842;263;98991;-41
2021/09/08 12:42:20;;;;;;;4.50;3.70;;;;;;;23.21;62.11;97039.38;1099219;262;100331;-39
2021/09/08 12:47:21;;;;;;;5.30;3.70;;;;;;;23.22;62.11;97027.73;1103836;262;98017;-40
2021/09/08 12:52:23;;;;;;;4.97;3.70;;;;;;;23.20;62.13;97025.31;1104590;262;75616;-40
2021/09/08 12:57:25;;;;;;;4.90;3.60;;;;;;;23.19;62.07;97020.94;1101685;262;70791;-41
2021/09/08 13:02:26;;;;;;;4.67;3.73;;;;;;;23.19;62.11;97015.98;1102983;262;277685;-39
2021/09/08 13:07:28;;;;;;;4.13;3.57;;;;;;;23.18;62.16;97010.20;1102152;262;97983;-41
2021/09/08 13:12:29;;;;;;;4.70;3.53;;;;;;;23.18;62.13;97012.97;1105125;262;98977;-39
2021/09/08 13:17:31;;;;;;;3.97;3.47;;;;;;;23.17;62.13;97001.09;1101285;262;193510;-41
2021/09/08 13:22:32;;;;;;;4.50;3.80;;;;;;;23.18;62.09;97001.36;1097785;263;98943;-40
2021/09/08 13:27:37;;;;;;;4.57;3.97;;;;;;;23.18;62.08;97001.36;1097312;263;99058;-41
2021/09/08 13:32:37;;;;;;;4.83;3.90;;;;;;;23.18;62.06;96994.99;1099303;263;158816;-40
2021/09/08 13:37:39;;;;;;;4.23;3.83;;;;;;;23.16;62.11;96990.39;1099925;263;98968;-40
2021/09/08 13:42:40;;;;;;;5.17;4.20;;;;;;;23.16;62.12;96987.62;1098338;262;98945;-42
2021/09/08 13:47:42;;;;;;;4.87;3.87;;;;;;;23.16;62.10;96980.71;1100431;263;194811;-40
2021/09/08 13:52:46;;;;;;;4.53;3.70;;;;;;;23.14;62.12;96969.20;1102786;263;98958;-39
2021/09/08 13:57:48;;;;;;;4.43;3.50;;;;;;;23.14;62.15;96970.58;1101675;261;99048;-40
2021/09/08 14:02:49;;;;;;;5.47;4.20;;;;;;;23.13;62.12;96953.19;1103540;262;99433;-40
2021/09/08 14:07:51;;;;;;;5.27;3.83;;;;;;;23.13;62.14;96955.15;1103735;262;98097;-40
2021/09/08 14:12:53;;;;;;;3.90;3.17;;;;;;;23.12;62.15;96955.72;1102379;262;188080;-40
2021/09/08 14:17:55;;;;;;;4.80;3.50;;;;;;;23.13;62.14;96948.23;1103688;262;99009;-41
2021/09/08 14:22:57;;;;;;;4.00;3.47;;;;;;;23.11;62.16;96948.59;1101550;262;98026;-39
2021/09/08 14:27:58;;;;;;;6.77;3.93;;;;;;;23.13;62.05;96948.23;1099556;262;98968;-39
2021/09/08 14:33:00;;;;;;;20.73;9.10;;;;;;;23.12;62.06;96944.66;1104649;262;72064;-40
2021/09/08 14:38:01;;;;;;;13.40;6.07;;;;;;;23.13;62.00;96942.13;1105210;262;70713;-41
2021/09/08 14:43:03;;;;;;;12.87;5.70;;;;;;;23.13;62.06;96937.17;1096681;263;277411;-40
2021/09/08 14:48:06;;;;;;;12.87;5.40;;;;;;;23.14;62.01;96933.26;1100132;263;97978;-40
2021/09/08 14:53:08;;;;;;;13.17;6.00;;;;;;;23.14;61.97;96938.20;1100559;263;76168;-41
2021/09/08 14:58:10;;;;;;;15.80;6.43;;;;;;;23.17;61.95;96924.27;1100936;262;97941;-41
2021/09/08 15:03:11;;;;;;;15.97;6.17;;;;;;;23.15;61.95;96934.29;1097128;262;193644;-40
2021/09/08 15:08:18;;;;;;;19.83;8.30;;;;;;;23.16;61.91;96927.61;1097849;263;98960;-41
2021/09/08 15:13:16;;;;;;;25.77;9.10;;;;;;;23.15;61.93;96917.70;1097471;263;75775;-40
2021/09/08 15:18:18;;;;;;;18.63;6.73;;;;;;;23.16;61.94;96911.02;1100295;263;97985;-41
2021/09/08 15:23:19;;;;;;;22.43;6.77;;;;;;;23.18;61.90;96902.38;1098073;263;192004;-40
2021/09/08 15:28:21;;;;;;;19.13;6.93;;;;;;;23.19;61.88;96906.77;1099190;263;98867;-41
2021/09/08 15:33:23;;;;;;;20.00;7.12;;;;;;;23.18;61.92;96892.70;1103058;262;98910;-40
2021/09/08 15:38:25;;;;;;;25.53;7.17;;;;;;;23.19;61.88;96895.72;1100285;262;197292;-40
2021/09/08 15:43:26;;;;;;;30.67;8.87;;;;;;;23.19;61.95;96888.80;1101895;263;99207;-42
2021/09/08 15:48:28;;;;;;;25.90;7.33;;;;;;;23.18;61.94;96882.47;1098970;263;98022;-40
2021/09/08 15:53:29;;;;;;;28.63;8.97;;;;;;;23.20;61.93;96877.97;1102934;263;190451;-40
2021/09/08 15:58:34;;;;;;;27.13;8.23;;;;;;;23.21;61.91;96870.70;1101265;263;99092;-40
2021/09/08 16:03:35;;;;;;;32.40;8.57;;;;;;;23.22;61.86;96860.45;1102834;262;98982;-40
2021/09/08 16:08:37;;;;;;;25.17;7.93;;;;;;;23.21;61.94;96848.59;1102733;262;98837;-39
2021/09/08 16:13:39;;;;;;;1999.90;829.73;;;;;;;22.72;67.65;96847.78;1102649;262;98565;-42
2021/09/08 16:18:40;;;;;;;1999.90;760.27;;;;;;;24.59;64.95;96827.94;1103768;262;71861;-40
2021/09/08 16:23:42;;;;;;;1999.90;749.43;;;;;;;24.83;63.08;96831.09;1102736;262;70833;-37
2021/09/08 16:28:43;;;;;;;1999.90;759.33;;;;;;;26.75;59.17;96820.56;1101835;262;75253;-39
2021/09/08 16:33:45;;;;;;;1999.90;744.40;;;;;;;25.77;60.97;96815.59;1097354;263;276194;-39
2021/09/08 16:38:46;;;;;;;1999.90;801.43;;;;;;;25.77;60.91;96811.42;1099832;263;98019;-39
2021/09/08 16:43:50;;;;;;;1999.90;767.73;;;;;;;25.57;61.40;96810.59;1100104;263;99406;-41
2021/09/08 16:48:51;;;;;;;1999.90;715.13;;;;;;;25.28;61.79;96800.05;1099106;262;166507;-43
2021/09/08 16:53:53;;;;;;;1916.33;649.03;;;;;;;25.31;61.92;96806.28;1099390;263;98971;-44
2021/09/08 16:58:54;;;;;;;1802.47;612.80;;;;;;;25.23;62.17;96801.16;1097306;263;98952;-42
2021/09/08 17:03:56;;;;;;;1748.77;571.00;;;;;;;25.11;62.24;96797.13;1097806;263;191515;-43
2021/09/08 17:08:57;;;;;;;1611.10;526.67;;;;;;;25.07;62.37;96805.93;1100779;263;97999;-43
2021/09/08 17:13:59;;;;;;;1533.83;503.50;;;;;;;25.06;62.33;96802.36;1099739;261;98945;-46
2021/09/08 17:19:00;;;;;;;1605.43;504.83;;;;;;;25.14;61.89;96800.55;1095888;263;195799;-42
2021/09/08 17:24:02;;;;;;;1371.83;422.43;;;;;;;24.35;63.78;96808.12;1098606;263;98957;-41
2021/09/08 17:29:03;;;;;;;1202.63;388.93;;;;;;;24.35;64.62;96799.81;1100543;262;97995;-58
2021/09/08 17:34:05;;;;;;;1078.50;328.83;;;;;;;24.97;63.68;96798.95;1100905;262;191150;-59
2021/09/08 17:39:07;;;;;;;1157.70;370.23;;;;;;;24.58;63.58;96795.27;1098080;263;97788;-56
2021/09/08 17:44:08;;;;;;;1240.47;427.47;;;;;;;25.03;63.57;96805.86;1097008;263;97970;-45
2021/09/08 17:49:10;;;;;;;1360.23;498.20;;;;;;;24.86;63.10;96800.67;1104126;262;101013;-47
2021/09/08 17:54:11;;;;;;;1362.73;486.50;;;;;;;25.22;62.05;96798.75;1103790;262;71868;-50
2021/09/08 17:59:13;;;;;;;1261.43;429.70;;;;;;;26.36;59.76;96806.55;1100839;262;72159;-45
2021/09/08 18:04:16;;;;;;;1063.80;360.37;;;;;;;25.18;62.19;96803.39;1098455;263;275664;-49
2021/09/08 18:09:17;;;;;;;1036.80;335.53;;;;;;;25.13;62.60;96798.14;1099154;263;98937;-51
2021/09/08 18:14:19;;;;;;;915.47;288.13;;;;;;;24.84;63.00;96796.66;1098745;262;97928;-53
2021/09/08 18:19:21;;;;;;;827.37;248.60;;;;;;;24.58;63.38;96798.05;1101432;263;195162;-56
2021/09/08 18:24:22;;;;;;;678.53;189.87;;;;;;;24.33;64.09;96807.67;1104836;263;98947;-46
2021/09/08 18:29:24;;;;;;;597.23;154.67;;;;;;;24.28;64.09;96809.31;1106649;262;98094;-45
2021/09/08 18:34:25;;;;;;;521.43;130.27;;;;;;;24.28;64.57;96805.16;1106806;262;190264;-45
2021/09/08 18:39:27;;;;;;;487.20;119.80;;;;;;;24.21;64.42;96805.77;1104273;262;99489;-43
2021/09/08 18:44:29;;;;;;;411.50;99.07;;;;;;;24.18;64.71;96803.13;1105094;261;97837;-41
2021/09/08 18:49:32;;;;;;;334.20;87.30;;;;;;;24.42;64.15;96798.61;1107702;261;196171;-48
2021/09/08 18:54:33;;;;;;;381.50;131.17;;;;;;;23.96;65.23;96798.20;1103409;262;99422;-51
2021/09/08 18:59:35;;;;;;;424.13;153.07;;;;;;;24.26;66.25;96797.80;1106625;261;98828;-50
2021/09/08 19:04:37;;;;;;;398.00;127.17;;;;;;;23.60;66.25;96788.09;1105628;261;98948;-54
2021/09/08 19:09:39;;;;;;;697.30;301.87;;;;;;;23.17;67.12;96787.41;1103639;261;191025;-53
2021/09/08 19:14:40;;;;;;;1010.23;473.97;;;;;;;23.84;65.83;96785.81;1107139;261;99425;-51
2021/09/08 19:19:42;;;;;;;949.43;417.43;;;;;;;24.49;64.07;96775.25;1106370;261;97987;-48
2021/09/08 19:24:43;;;;;;;913.60;385.82;;;;;;;24.01;65.24;96767.47;1106773;261;97035;-50
2021/09/08 19:29:45;;;;;;;944.07;400.63;;;;;;;24.16;64.84;96768.08;1108191;261;72032;-48
2021/09/08 19:34:46;;;;;;;1046.63;440.93;;;;;;;25.71;62.24;96755.17;1106876;261;70637;-47
2021/09/08 19:39:48;;;;;;;1521.90;652.13;;;;;;;24.41;64.23;96749.92;1104960;262;275230;-45
2021/09/08 19:44:49;;;;;;;1612.33;681.03;;;;;;;23.79;65.81;96749.49;1106137;261;98018;-39
2021/09/08 19:49:51;;;;;;;1495.77;606.67;;;;;;;24.27;64.61;96739.27;1107566;261;99057;-41
2021/09/08 19:54:53;;;;;;;1305.10;532.10;;;;;;;24.80;62.88;96739.77;1109284;261;95771;-38
2021/09/08 19:59:54;;;;;;;1771.63;729.73;;;;;;;24.07;64.86;96734.22;1108337;261;76684;-40
2021/09/08 20:04:56;;;;;;;1153.87;446.67;;;;;;;25.55;63.17;96731.66;1106618;261;71677;-50
2021/09/08 20:09:57;;;;;;;1075.47;402.07;;;;;;;25.07;62.42;96726.91;1103538;261;190976;-45
2021/09/08 20:14:59;;;;;;;1664.53;670.53;;;;;;;24.24;64.31;96729.72;1106530;261;98941;-43
2021/09/08 20:20:01;;;;;;;1384.58;555.05;;;;;;;24.51;63.57;96722.47;1107200;261;98021;-45
2021/09/08 20:25:03;;;;;;;1656.60;651.00;;;;;;;24.34;64.05;96724.22;1108180;261;195773;-44
2021/09/08 20:30:04;;;;;;;1593.03;620.80;;;;;;;25.17;62.15;96724.94;1104228;261;98101;-40
2021/09/08 20:35:06;;;;;;;1643.50;626.00;;;;;;;24.84;62.61;96727.36;1105170;262;99081;-45
2021/09/08 20:40:08;;;;;;;1886.20;717.50;;;;;;;24.96;62.33;96720.30;1106965;262;190932;-43
2021/09/08 20:45:09;;;;;;;1698.80;638.47;;;;;;;24.65;63.12;96719.21;1106605;262;97997;-45
2021/09/08 20:50:11;;;;;;;1549.00;579.20;;;;;;;24.77;62.74;96714.93;1106853;262;99027;-43
2021/09/08 20:55:13;;;;;;;1374.50;506.30;;;;;;;25.34;61.33;96713.41;1107466;262;98062;-43
2021/09/08 21:00:14;;;;;;;1371.57;506.97;;;;;;;25.53;61.01;96710.41;1106429;262;73055;-44
2021/09/08 21:05:16;;;;;;;1143.30;402.43;;;;;;;24.78;62.59;96712.41;1106712;262;70119;-43
2021/09/08 21:10:17;;;;;;;1052.83;352.97;;;;;;;24.93;62.43;96715.48;1104722;262;275614;-42
2021/09/08 21:15:19;;;;;;;1197.77;460.93;;;;;;;24.98;62.16;96709.05;1103822;262;98028;-41
2021/09/08 21:20:20;;;;;;;1058.67;371.00;;;;;;;25.48;61.23;96710.70;1100546;262;97986;-45
2021/09/08 21:25:22;;;;;;;1415.17;557.57;;;;;;;24.69;62.56;96707.64;1102634;262;193498;-44
2021/09/08 21:30:24;;;;;;;1707.57;694.17;;;;;;;24.60;62.92;96697.92;1100346;263;98957;-44
2021/09/08 21:35:25;;;;;;;1493.30;568.43;;;;;;;24.52;63.11;96699.72;1102079;262;98944;-42
2021/09/08 21:40:27;;;;;;;1595.87;618.53;;;;;;;24.95;62.35;96700.67;1096414;263;189995;-40
2021/09/08 21:45:28;;;;;;;1636.40;621.77;;;;;;;25.25;61.43;96703.13;1098448;263;99100;-42
2021/09/08 21:50:30;;;;;;;1536.87;579.60;;;;;;;24.51;63.04;96687.84;1100410;262;100330;-42
2021/09/08 21:55:31;;;;;;;1573.87;583.13;;;;;;;25.10;61.79;96690.14;1101477;262;195706;-44
2021/09/08 22:00:33;;;;;;;1553.77;600.43;;;;;;;24.80;62.17;96687.09;1098243;263;98009;-40
2021/09/08 22:05:34;;;;;;;1523.60;558.53;;;;;;;25.36;61.09;96688.08;1102551;261;97988;-45
2021/09/08 22:10:36;;;;;;;1426.97;502.77;;;;;;;24.94;61.81;96691.55;1101195;262;190301;-45
2021/09/08 22:15:37;;;;;;;1113.90;384.50;;;;;;;25.79;60.48;96686.93;1098267;263;98997;-43
2021/09/08 22:20:39;;;;;;;1269.77;465.67;;;;;;;25.01;61.63;96683.98;1100404;262;98952;-44
2021/09/08 22:25:40;;;;;;;1798.53;700.75;;;;;;;25.52;60.67;96693.52;1101752;262;98274;-45
2021/09/08 22:30:42;;;;;;;1999.90;792.93;;;;;;;25.27;61.36;96681.95;1101137;262;70798;-49
2021/09/08 22:35:44;;;;;;;1980.90;740.67;;;;;;;25.32;61.08;96682.47;1101116;262;76248;-44
2021/09/08 22:40:45;;;;;;;1770.00;653.40;;;;;;;26.29;60.14;96675.86;1099091;263;279028;-51
2021/09/08 22:45:48;;;;;;;1908.37;694.37;;;;;;;25.54;60.54;96692.59;1098867;263;97980;-46
2021/09/08 22:50:50;;;;;;;1999.90;773.50;;;;;;;25.90;60.27;96683.75;1101071;263;98948;-44